EZY47TM EGGD-LXGB
Flight info
| Callsign | EZY47TM |
|---|---|
| Flight time | 2h 26m |
| Altitude | 35000 |
| Route | EXMOR N92 DAWLY N864 BHD DCT SALCO DCT NOVAN DCT DELOG DCT CRISA DCT VULPE DCT MAR N864 PIMOS |
| Aircraft | A320/M-SDE3FGHIRWY/LB1 |
Departure
| Time | 2026-05-07 08:44 |
|---|---|
| Airport | Bristol Airport (EGGD) |
Arrival
| Time | 2026-05-07 11:10 |
|---|---|
| Airport | Gibraltar Airport (LXGB) |
| Time | Latitude | Longitude | Altitude | Speed | Heading |
|---|---|---|---|---|---|
| 2026-05-07 08:34 | 51.38540 | -2.71609 | 623 ft | 0 kts | 358° |
| 2026-05-07 08:37 | 51.38539 | -2.71609 | 621 ft | 1 kts | 358° |
| 2026-05-07 08:38 | 51.38515 | -2.71607 | 624 ft | 3 kts | 358° |
| 2026-05-07 08:38 | 51.38494 | -2.71604 | 622 ft | 4 kts | 332° |
| 2026-05-07 08:38 | 51.38481 | -2.71577 | 623 ft | 4 kts | 269° |
| 2026-05-07 08:38 | 51.38481 | -2.71590 | 623 ft | 4 kts | 266° |
| 2026-05-07 08:39 | 51.38480 | -2.71616 | 622 ft | 1 kts | 266° |
| 2026-05-07 08:41 | 51.38474 | -2.71646 | 612 ft | 8 kts | 241° |
| 2026-05-07 08:41 | 51.38438 | -2.71689 | 614 ft | 9 kts | 249° |
| 2026-05-07 08:41 | 51.38430 | -2.71880 | 605 ft | 24 kts | 267° |
| 2026-05-07 08:41 | 51.38428 | -2.72152 | 606 ft | 24 kts | 267° |
| 2026-05-07 08:42 | 51.38419 | -2.72409 | 611 ft | 22 kts | 266° |
| 2026-05-07 08:42 | 51.38411 | -2.72570 | 611 ft | 23 kts | 266° |
| 2026-05-07 08:42 | 51.38400 | -2.72868 | 606 ft | 30 kts | 266° |
| 2026-05-07 08:42 | 51.38387 | -2.73203 | 608 ft | 26 kts | 265° |
| 2026-05-07 08:43 | 51.38356 | -2.73315 | 622 ft | 6 kts | 225° |
| 2026-05-07 08:43 | 51.38296 | -2.73344 | 618 ft | 16 kts | 177° |
| 2026-05-07 08:43 | 51.38217 | -2.73249 | 628 ft | 14 kts | 101° |
| 2026-05-07 08:43 | 51.38224 | -2.72997 | 633 ft | 49 kts | 86° |
| 2026-05-07 08:44 | 51.38261 | -2.72065 | 619 ft | 117 kts | 86° |
| 2026-05-07 08:44 | 51.38326 | -2.70502 | 768 ft | 151 kts | 87° |
| 2026-05-07 08:44 | 51.38387 | -2.68852 | 1495 ft | 149 kts | 90° |
| 2026-05-07 08:44 | 51.38436 | -2.67107 | 1764 ft | 167 kts | 91° |
| 2026-05-07 08:45 | 51.38488 | -2.65119 | 2000 ft | 191 kts | 90° |
| 2026-05-07 08:45 | 51.38549 | -2.62873 | 2249 ft | 214 kts | 90° |
| 2026-05-07 08:45 | 51.38621 | -2.60353 | 2576 ft | 239 kts | 90° |
| 2026-05-07 08:45 | 51.38691 | -2.57593 | 3125 ft | 254 kts | 93° |
| 2026-05-07 08:46 | 51.38291 | -2.54854 | 3910 ft | 255 kts | 118° |
| 2026-05-07 08:46 | 51.37180 | -2.52656 | 4718 ft | 256 kts | 144° |
| 2026-05-07 08:46 | 51.35572 | -2.51461 | 5508 ft | 258 kts | 170° |
| 2026-05-07 08:46 | 51.33783 | -2.51520 | 6282 ft | 261 kts | 196° |
| 2026-05-07 08:47 | 51.32193 | -2.52833 | 7027 ft | 265 kts | 221° |
| 2026-05-07 08:47 | 51.31097 | -2.55205 | 7744 ft | 271 kts | 248° |
| 2026-05-07 08:47 | 51.30749 | -2.58183 | 8471 ft | 277 kts | 265° |
| 2026-05-07 08:47 | 51.30648 | -2.61274 | 9224 ft | 281 kts | 266° |
| 2026-05-07 08:48 | 51.30550 | -2.64416 | 9969 ft | 285 kts | 265° |
| 2026-05-07 08:48 | 51.30365 | -2.67633 | 10368 ft | 300 kts | 258° |
| 2026-05-07 08:48 | 51.29982 | -2.71040 | 10536 ft | 323 kts | 258° |
| 2026-05-07 08:48 | 51.29572 | -2.74654 | 10938 ft | 336 kts | 258° |
| 2026-05-07 08:49 | 51.29152 | -2.78354 | 11570 ft | 341 kts | 258° |
| 2026-05-07 08:49 | 51.28840 | -2.82129 | 12258 ft | 345 kts | 265° |
| 2026-05-07 08:49 | 51.28781 | -2.85987 | 12941 ft | 349 kts | 269° |
| 2026-05-07 08:49 | 51.28868 | -2.89879 | 13658 ft | 352 kts | 271° |
| 2026-05-07 08:50 | 51.29013 | -2.93805 | 14262 ft | 356 kts | 271° |
| 2026-05-07 08:50 | 51.29159 | -2.97759 | 14860 ft | 358 kts | 272° |
| 2026-05-07 08:50 | 51.29046 | -3.01729 | 15448 ft | 359 kts | 257° |
| 2026-05-07 08:50 | 51.28262 | -3.05501 | 16040 ft | 359 kts | 244° |
| 2026-05-07 08:51 | 51.27094 | -3.09036 | 16635 ft | 361 kts | 238° |
| 2026-05-07 08:51 | 51.25776 | -3.12457 | 17228 ft | 363 kts | 237° |
| 2026-05-07 08:51 | 51.24438 | -3.15897 | 17780 ft | 367 kts | 238° |
| 2026-05-07 08:51 | 51.23140 | -3.19413 | 18368 ft | 369 kts | 240° |
| 2026-05-07 08:52 | 51.21901 | -3.23012 | 18879 ft | 372 kts | 242° |
| 2026-05-07 08:52 | 51.20708 | -3.26684 | 19367 ft | 374 kts | 242° |
| 2026-05-07 08:52 | 51.19333 | -3.30221 | 19856 ft | 377 kts | 231° |
| 2026-05-07 08:52 | 51.17502 | -3.33212 | 20385 ft | 379 kts | 218° |
| 2026-05-07 08:53 | 51.15270 | -3.35452 | 20879 ft | 382 kts | 205° |
| 2026-05-07 08:53 | 51.12745 | -3.36812 | 21350 ft | 387 kts | 192° |
| 2026-05-07 08:53 | 51.10063 | -3.37352 | 21835 ft | 390 kts | 187° |
| 2026-05-07 08:53 | 51.07356 | -3.37789 | 22318 ft | 392 kts | 187° |
| 2026-05-07 08:54 | 51.04626 | -3.38250 | 22778 ft | 395 kts | 187° |
| 2026-05-07 08:54 | 51.01882 | -3.38726 | 23215 ft | 399 kts | 187° |
| 2026-05-07 08:54 | 50.99117 | -3.39213 | 23662 ft | 401 kts | 188° |
| 2026-05-07 08:54 | 50.96336 | -3.39704 | 24033 ft | 403 kts | 188° |
| 2026-05-07 08:55 | 50.93540 | -3.40195 | 24390 ft | 406 kts | 188° |
| 2026-05-07 08:55 | 50.90726 | -3.40687 | 24738 ft | 408 kts | 187° |
| 2026-05-07 08:55 | 50.87893 | -3.41178 | 25081 ft | 410 kts | 187° |
| 2026-05-07 08:55 | 50.85052 | -3.41666 | 25425 ft | 412 kts | 188° |
| 2026-05-07 08:56 | 50.82197 | -3.42157 | 25748 ft | 414 kts | 188° |
| 2026-05-07 08:56 | 50.79324 | -3.42654 | 26052 ft | 417 kts | 188° |
| 2026-05-07 08:56 | 50.76433 | -3.43153 | 26374 ft | 419 kts | 188° |
| 2026-05-07 08:56 | 50.73527 | -3.43651 | 26690 ft | 421 kts | 188° |
| 2026-05-07 08:57 | 50.70605 | -3.44151 | 27006 ft | 423 kts | 188° |
| 2026-05-07 08:57 | 50.67673 | -3.44649 | 27321 ft | 425 kts | 188° |
| 2026-05-07 08:57 | 50.64725 | -3.45148 | 27624 ft | 427 kts | 187° |
| 2026-05-07 08:57 | 50.61763 | -3.45647 | 27919 ft | 429 kts | 188° |
| 2026-05-07 08:58 | 50.58792 | -3.46151 | 28204 ft | 431 kts | 188° |
| 2026-05-07 08:58 | 50.55808 | -3.46664 | 28510 ft | 432 kts | 188° |
| 2026-05-07 08:58 | 50.52815 | -3.47181 | 28791 ft | 434 kts | 188° |
| 2026-05-07 08:58 | 50.49809 | -3.47696 | 29060 ft | 435 kts | 188° |
| 2026-05-07 08:59 | 50.46792 | -3.48210 | 29321 ft | 437 kts | 188° |
| 2026-05-07 08:59 | 50.43762 | -3.48722 | 29576 ft | 439 kts | 188° |
| 2026-05-07 08:59 | 50.40719 | -3.49229 | 29825 ft | 440 kts | 188° |
| 2026-05-07 08:59 | 50.37660 | -3.49653 | 30057 ft | 443 kts | 186° |
| 2026-05-07 09:00 | 50.34577 | -3.49908 | 30263 ft | 444 kts | 184° |
| 2026-05-07 09:00 | 50.31481 | -3.50048 | 30462 ft | 446 kts | 183° |
| 2026-05-07 09:00 | 50.28377 | -3.50139 | 30665 ft | 447 kts | 183° |
| 2026-05-07 09:00 | 50.25273 | -3.50226 | 30938 ft | 446 kts | 183° |
| 2026-05-07 09:01 | 50.22177 | -3.50333 | 31204 ft | 445 kts | 184° |
| 2026-05-07 09:01 | 50.19083 | -3.50469 | 31460 ft | 444 kts | 184° |
| 2026-05-07 09:01 | 50.16040 | -3.50626 | 31716 ft | 444 kts | 184° |
| 2026-05-07 09:01 | 50.12953 | -3.50804 | 31972 ft | 443 kts | 184° |
| 2026-05-07 09:02 | 50.09879 | -3.50987 | 32262 ft | 442 kts | 184° |
| 2026-05-07 09:02 | 50.06813 | -3.51166 | 32539 ft | 441 kts | 184° |
| 2026-05-07 09:02 | 50.03750 | -3.51339 | 32802 ft | 440 kts | 184° |
| 2026-05-07 09:02 | 50.00690 | -3.51507 | 33063 ft | 440 kts | 184° |
| 2026-05-07 09:03 | 49.97737 | -3.51667 | 33309 ft | 439 kts | 184° |
| 2026-05-07 09:03 | 49.94685 | -3.51831 | 33557 ft | 439 kts | 184° |
| 2026-05-07 09:03 | 49.91636 | -3.51992 | 33806 ft | 438 kts | 184° |
| 2026-05-07 09:03 | 49.88594 | -3.52155 | 34052 ft | 438 kts | 184° |
| 2026-05-07 09:04 | 49.85551 | -3.52318 | 34277 ft | 437 kts | 184° |
| 2026-05-07 09:04 | 49.82508 | -3.52480 | 34467 ft | 437 kts | 184° |
| 2026-05-07 09:04 | 49.79468 | -3.52643 | 34655 ft | 437 kts | 184° |
| 2026-05-07 09:04 | 49.76430 | -3.52805 | 34831 ft | 438 kts | 184° |
| 2026-05-07 09:05 | 49.73384 | -3.52965 | 34993 ft | 438 kts | 184° |
| 2026-05-07 09:05 | 49.70341 | -3.53123 | 35041 ft | 437 kts | 184° |
| 2026-05-07 09:05 | 49.64277 | -3.53444 | 35041 ft | 435 kts | 184° |
| 2026-05-07 09:06 | 49.58229 | -3.53769 | 35040 ft | 435 kts | 184° |
| 2026-05-07 09:06 | 49.52180 | -3.54092 | 35040 ft | 435 kts | 184° |
| 2026-05-07 09:07 | 49.46128 | -3.54415 | 35032 ft | 435 kts | 184° |
| 2026-05-07 09:07 | 49.40077 | -3.54733 | 35035 ft | 435 kts | 184° |
| 2026-05-07 09:08 | 49.34077 | -3.55039 | 35035 ft | 434 kts | 184° |
| 2026-05-07 09:08 | 49.28033 | -3.55352 | 35036 ft | 434 kts | 184° |
| 2026-05-07 09:09 | 49.22000 | -3.55672 | 35029 ft | 434 kts | 184° |
| 2026-05-07 09:09 | 49.15972 | -3.55983 | 35034 ft | 433 kts | 184° |
| 2026-05-07 09:10 | 49.09951 | -3.56292 | 35031 ft | 433 kts | 184° |
| 2026-05-07 09:10 | 49.03940 | -3.56611 | 35030 ft | 432 kts | 184° |
| 2026-05-07 09:11 | 48.97928 | -3.56921 | 35026 ft | 432 kts | 184° |
| 2026-05-07 09:11 | 48.91921 | -3.57219 | 35028 ft | 432 kts | 184° |
| 2026-05-07 09:12 | 48.85915 | -3.57532 | 35026 ft | 432 kts | 184° |
| 2026-05-07 09:12 | 48.79916 | -3.57839 | 35030 ft | 432 kts | 183° |
| 2026-05-07 09:13 | 48.73907 | -3.58143 | 35032 ft | 432 kts | 184° |
| 2026-05-07 09:13 | 48.67891 | -3.58456 | 35036 ft | 433 kts | 184° |
| 2026-05-07 09:14 | 48.61874 | -3.58761 | 35032 ft | 433 kts | 183° |
| 2026-05-07 09:14 | 48.55865 | -3.59062 | 35024 ft | 432 kts | 183° |
| 2026-05-07 09:15 | 48.49857 | -3.59371 | 35019 ft | 432 kts | 183° |
| 2026-05-07 09:15 | 48.43853 | -3.59671 | 35022 ft | 432 kts | 183° |
| 2026-05-07 09:16 | 48.37853 | -3.59975 | 35012 ft | 431 kts | 183° |
| 2026-05-07 09:16 | 48.31863 | -3.60279 | 35014 ft | 430 kts | 183° |
| 2026-05-07 09:17 | 48.25883 | -3.60574 | 35011 ft | 430 kts | 183° |
| 2026-05-07 09:17 | 48.19904 | -3.60861 | 35010 ft | 430 kts | 183° |
| 2026-05-07 09:18 | 48.13930 | -3.61157 | 35010 ft | 430 kts | 183° |
| 2026-05-07 09:18 | 48.07956 | -3.61465 | 35009 ft | 429 kts | 183° |
| 2026-05-07 09:19 | 48.02023 | -3.61762 | 35011 ft | 429 kts | 183° |
| 2026-05-07 09:19 | 47.96054 | -3.62059 | 35013 ft | 429 kts | 183° |
| 2026-05-07 09:20 | 47.90084 | -3.62358 | 35022 ft | 429 kts | 183° |
| 2026-05-07 09:20 | 47.84117 | -3.62652 | 35021 ft | 429 kts | 183° |
| 2026-05-07 09:21 | 47.78154 | -3.62944 | 35027 ft | 429 kts | 183° |
| 2026-05-07 09:21 | 47.72189 | -3.63230 | 35025 ft | 429 kts | 183° |
| 2026-05-07 09:22 | 47.66232 | -3.63519 | 35029 ft | 429 kts | 183° |
| 2026-05-07 09:22 | 47.60271 | -3.63812 | 35028 ft | 428 kts | 183° |
| 2026-05-07 09:23 | 47.54311 | -3.64110 | 35026 ft | 428 kts | 183° |
| 2026-05-07 09:23 | 47.48353 | -3.64397 | 35021 ft | 428 kts | 183° |
| 2026-05-07 09:24 | 47.42400 | -3.64686 | 35023 ft | 428 kts | 183° |
| 2026-05-07 09:24 | 47.36450 | -3.64970 | 35026 ft | 428 kts | 183° |
| 2026-05-07 09:25 | 47.30502 | -3.65261 | 35022 ft | 428 kts | 183° |
| 2026-05-07 09:25 | 47.24555 | -3.65555 | 35025 ft | 427 kts | 183° |
| 2026-05-07 09:26 | 47.18609 | -3.65840 | 35027 ft | 427 kts | 183° |
| 2026-05-07 09:26 | 47.12668 | -3.66127 | 35026 ft | 427 kts | 183° |
| 2026-05-07 09:27 | 47.06727 | -3.66407 | 35026 ft | 427 kts | 183° |
| 2026-05-07 09:28 | 46.97821 | -3.66823 | 35029 ft | 427 kts | 183° |
| 2026-05-07 09:28 | 46.91921 | -3.67099 | 35029 ft | 427 kts | 183° |
| 2026-05-07 09:29 | 46.86950 | -3.67341 | 35032 ft | 427 kts | 183° |
| 2026-05-07 09:29 | 46.80054 | -3.67674 | 35036 ft | 426 kts | 183° |
| 2026-05-07 09:30 | 46.74128 | -3.67952 | 35036 ft | 426 kts | 183° |
| 2026-05-07 09:30 | 46.69165 | -3.68182 | 35039 ft | 426 kts | 183° |
| 2026-05-07 09:31 | 46.63246 | -3.68457 | 35040 ft | 425 kts | 183° |
| 2026-05-07 09:31 | 46.57328 | -3.68734 | 35035 ft | 425 kts | 183° |
| 2026-05-07 09:32 | 46.51414 | -3.69011 | 35031 ft | 425 kts | 183° |
| 2026-05-07 09:32 | 46.45499 | -3.69292 | 35026 ft | 425 kts | 183° |
| 2026-05-07 09:33 | 46.39585 | -3.69587 | 35027 ft | 425 kts | 183° |
| 2026-05-07 09:33 | 46.33673 | -3.69863 | 35025 ft | 425 kts | 183° |
| 2026-05-07 09:34 | 46.27778 | -3.70375 | 35016 ft | 424 kts | 187° |
| 2026-05-07 09:34 | 46.21959 | -3.71319 | 35019 ft | 424 kts | 188° |
| 2026-05-07 09:35 | 46.16106 | -3.72322 | 35022 ft | 424 kts | 187° |
| 2026-05-07 09:35 | 46.10245 | -3.73233 | 35017 ft | 424 kts | 187° |
| 2026-05-07 09:36 | 46.04383 | -3.74092 | 35019 ft | 423 kts | 187° |
| 2026-05-07 09:36 | 45.98519 | -3.74936 | 35021 ft | 423 kts | 187° |
| 2026-05-07 09:37 | 45.92661 | -3.75802 | 35026 ft | 423 kts | 187° |
| 2026-05-07 09:37 | 45.86799 | -3.76673 | 35018 ft | 423 kts | 187° |
| 2026-05-07 09:38 | 45.80946 | -3.77542 | 35019 ft | 423 kts | 187° |
| 2026-05-07 09:38 | 45.75092 | -3.78393 | 35023 ft | 423 kts | 187° |
| 2026-05-07 09:39 | 45.69234 | -3.79244 | 35018 ft | 423 kts | 187° |
| 2026-05-07 09:39 | 45.63386 | -3.80107 | 35022 ft | 423 kts | 187° |
| 2026-05-07 09:40 | 45.57535 | -3.80969 | 35024 ft | 422 kts | 187° |
| 2026-05-07 09:40 | 45.51686 | -3.81808 | 35022 ft | 422 kts | 187° |
| 2026-05-07 09:41 | 45.45843 | -3.82664 | 35018 ft | 422 kts | 187° |
| 2026-05-07 09:41 | 45.39997 | -3.83517 | 35018 ft | 422 kts | 187° |
| 2026-05-07 09:42 | 45.34158 | -3.84360 | 35014 ft | 422 kts | 187° |
| 2026-05-07 09:42 | 45.28323 | -3.85200 | 35009 ft | 421 kts | 187° |
| 2026-05-07 09:43 | 45.22488 | -3.86038 | 35013 ft | 422 kts | 187° |
| 2026-05-07 09:43 | 45.16646 | -3.86883 | 35011 ft | 422 kts | 187° |
| 2026-05-07 09:44 | 45.10800 | -3.87720 | 35001 ft | 422 kts | 187° |
| 2026-05-07 09:44 | 45.04949 | -3.88555 | 35004 ft | 422 kts | 187° |
| 2026-05-07 09:45 | 44.99100 | -3.89392 | 35003 ft | 423 kts | 187° |
| 2026-05-07 09:45 | 44.93247 | -3.90225 | 35011 ft | 423 kts | 187° |
| 2026-05-07 09:46 | 44.87394 | -3.91068 | 35007 ft | 423 kts | 187° |
| 2026-05-07 09:46 | 44.81542 | -3.91906 | 35011 ft | 422 kts | 187° |
| 2026-05-07 09:47 | 44.75733 | -3.92722 | 35011 ft | 422 kts | 187° |
| 2026-05-07 09:47 | 44.69889 | -3.93550 | 35004 ft | 422 kts | 187° |
| 2026-05-07 09:48 | 44.64050 | -3.94375 | 35001 ft | 422 kts | 187° |
| 2026-05-07 09:48 | 44.58219 | -3.95201 | 34993 ft | 421 kts | 187° |
| 2026-05-07 09:49 | 44.52384 | -3.96021 | 34985 ft | 421 kts | 187° |
| 2026-05-07 09:49 | 44.46560 | -3.96832 | 34984 ft | 420 kts | 187° |
| 2026-05-07 09:50 | 44.40740 | -3.97657 | 34988 ft | 420 kts | 187° |
| 2026-05-07 09:50 | 44.34923 | -3.98474 | 34984 ft | 420 kts | 187° |
| 2026-05-07 09:51 | 44.29102 | -3.99244 | 34985 ft | 420 kts | 186° |
| 2026-05-07 09:51 | 44.23274 | -3.99893 | 34989 ft | 420 kts | 186° |
| 2026-05-07 09:52 | 44.17447 | -4.00523 | 34987 ft | 420 kts | 186° |
| 2026-05-07 09:52 | 44.11625 | -4.01180 | 34983 ft | 419 kts | 186° |
| 2026-05-07 09:53 | 44.05810 | -4.01846 | 34988 ft | 419 kts | 186° |
| 2026-05-07 09:53 | 44.00006 | -4.02507 | 34990 ft | 419 kts | 186° |
| 2026-05-07 09:54 | 43.94199 | -4.03160 | 34984 ft | 418 kts | 186° |
| 2026-05-07 09:54 | 43.88403 | -4.03817 | 34983 ft | 418 kts | 186° |
| 2026-05-07 09:55 | 43.82609 | -4.04472 | 34978 ft | 418 kts | 186° |
| 2026-05-07 09:55 | 43.76812 | -4.05137 | 34979 ft | 418 kts | 186° |
| 2026-05-07 09:56 | 43.71020 | -4.05792 | 34973 ft | 418 kts | 186° |
| 2026-05-07 09:56 | 43.65231 | -4.06442 | 34974 ft | 417 kts | 186° |
| 2026-05-07 09:57 | 43.59444 | -4.07088 | 34963 ft | 417 kts | 186° |
| 2026-05-07 09:57 | 43.53667 | -4.07739 | 34956 ft | 416 kts | 186° |
| 2026-05-07 09:58 | 43.47932 | -4.08376 | 34961 ft | 416 kts | 186° |
| 2026-05-07 09:58 | 43.42161 | -4.09012 | 34963 ft | 416 kts | 186° |
| 2026-05-07 09:59 | 43.36400 | -4.09662 | 34964 ft | 415 kts | 186° |
| 2026-05-07 09:59 | 43.30642 | -4.10311 | 34960 ft | 415 kts | 186° |
| 2026-05-07 10:00 | 43.24892 | -4.10951 | 34958 ft | 414 kts | 186° |
| 2026-05-07 10:00 | 43.19147 | -4.11587 | 34959 ft | 414 kts | 186° |
| 2026-05-07 10:01 | 43.13408 | -4.12221 | 34946 ft | 414 kts | 186° |
| 2026-05-07 10:01 | 43.07672 | -4.12847 | 34953 ft | 413 kts | 186° |
| 2026-05-07 10:02 | 43.01944 | -4.13473 | 34950 ft | 413 kts | 186° |
| 2026-05-07 10:02 | 42.96215 | -4.14108 | 34950 ft | 413 kts | 186° |
| 2026-05-07 10:03 | 42.90483 | -4.14731 | 34952 ft | 413 kts | 186° |
| 2026-05-07 10:03 | 42.84758 | -4.15359 | 34954 ft | 413 kts | 186° |
| 2026-05-07 10:04 | 42.79032 | -4.15991 | 34953 ft | 413 kts | 186° |
| 2026-05-07 10:04 | 42.73307 | -4.16619 | 34957 ft | 413 kts | 186° |
| 2026-05-07 10:05 | 42.67582 | -4.17237 | 34963 ft | 413 kts | 186° |
| 2026-05-07 10:05 | 42.61853 | -4.17849 | 34963 ft | 413 kts | 186° |
| 2026-05-07 10:06 | 42.56127 | -4.18466 | 34963 ft | 413 kts | 186° |
| 2026-05-07 10:06 | 42.50397 | -4.19099 | 34969 ft | 413 kts | 186° |
| 2026-05-07 10:07 | 42.44671 | -4.19730 | 34967 ft | 413 kts | 186° |
| 2026-05-07 10:07 | 42.38981 | -4.20348 | 34959 ft | 413 kts | 186° |
| 2026-05-07 10:08 | 42.33256 | -4.20960 | 34956 ft | 413 kts | 186° |
| 2026-05-07 10:08 | 42.27530 | -4.21562 | 34955 ft | 413 kts | 186° |
| 2026-05-07 10:09 | 42.21801 | -4.22174 | 34945 ft | 413 kts | 186° |
| 2026-05-07 10:09 | 42.16069 | -4.22790 | 34954 ft | 413 kts | 186° |
| 2026-05-07 10:10 | 42.10341 | -4.23396 | 34952 ft | 413 kts | 186° |
| 2026-05-07 10:10 | 42.04625 | -4.24013 | 34946 ft | 413 kts | 186° |
| 2026-05-07 10:11 | 41.98884 | -4.24631 | 34940 ft | 413 kts | 186° |
| 2026-05-07 10:11 | 41.93157 | -4.25242 | 34939 ft | 413 kts | 186° |
| 2026-05-07 10:12 | 41.87438 | -4.25850 | 34942 ft | 412 kts | 186° |
| 2026-05-07 10:12 | 41.81716 | -4.26463 | 34932 ft | 412 kts | 186° |
| 2026-05-07 10:13 | 41.75996 | -4.27067 | 34927 ft | 413 kts | 186° |
| 2026-05-07 10:13 | 41.70272 | -4.27666 | 34929 ft | 413 kts | 186° |
| 2026-05-07 10:14 | 41.64543 | -4.28271 | 34922 ft | 413 kts | 186° |
| 2026-05-07 10:14 | 41.58811 | -4.28865 | 34925 ft | 413 kts | 186° |
| 2026-05-07 10:15 | 41.53077 | -4.29472 | 34933 ft | 413 kts | 186° |
| 2026-05-07 10:15 | 41.47341 | -4.30074 | 34929 ft | 413 kts | 186° |
| 2026-05-07 10:16 | 41.42573 | -4.30568 | 34923 ft | 413 kts | 186° |
| 2026-05-07 10:16 | 41.36839 | -4.31165 | 34920 ft | 413 kts | 186° |
| 2026-05-07 10:17 | 41.30177 | -4.31864 | 34915 ft | 413 kts | 186° |
| 2026-05-07 10:17 | 41.25371 | -4.32369 | 34919 ft | 413 kts | 186° |
| 2026-05-07 10:18 | 41.19635 | -4.32963 | 34927 ft | 414 kts | 186° |
| 2026-05-07 10:18 | 41.13899 | -4.33560 | 34934 ft | 413 kts | 186° |
| 2026-05-07 10:19 | 41.08165 | -4.34153 | 34931 ft | 413 kts | 186° |
| 2026-05-07 10:19 | 41.02430 | -4.34742 | 34918 ft | 413 kts | 186° |
| 2026-05-07 10:20 | 40.96698 | -4.35336 | 34922 ft | 413 kts | 186° |
| 2026-05-07 10:20 | 40.90961 | -4.35933 | 34938 ft | 414 kts | 186° |
| 2026-05-07 10:21 | 40.85219 | -4.36526 | 34937 ft | 414 kts | 186° |
| 2026-05-07 10:21 | 40.79474 | -4.37115 | 34945 ft | 414 kts | 186° |
| 2026-05-07 10:22 | 40.73736 | -4.37697 | 34947 ft | 413 kts | 186° |
| 2026-05-07 10:22 | 40.68005 | -4.38279 | 34950 ft | 413 kts | 186° |
| 2026-05-07 10:23 | 40.62281 | -4.38863 | 34950 ft | 413 kts | 186° |
| 2026-05-07 10:23 | 40.56557 | -4.39453 | 34953 ft | 412 kts | 186° |
| 2026-05-07 10:24 | 40.50835 | -4.40038 | 34950 ft | 412 kts | 186° |
| 2026-05-07 10:24 | 40.45111 | -4.40618 | 34945 ft | 412 kts | 186° |
| 2026-05-07 10:25 | 40.39392 | -4.41199 | 34950 ft | 412 kts | 186° |
| 2026-05-07 10:25 | 40.33667 | -4.41777 | 34942 ft | 412 kts | 186° |
| 2026-05-07 10:26 | 40.27973 | -4.42354 | 34939 ft | 413 kts | 186° |
| 2026-05-07 10:26 | 40.22248 | -4.42932 | 34940 ft | 412 kts | 186° |
| 2026-05-07 10:27 | 40.16526 | -4.43507 | 34931 ft | 412 kts | 186° |
| 2026-05-07 10:27 | 40.10804 | -4.44083 | 34925 ft | 412 kts | 186° |
| 2026-05-07 10:28 | 40.05083 | -4.44661 | 34925 ft | 412 kts | 186° |
| 2026-05-07 10:28 | 39.99360 | -4.45234 | 34925 ft | 412 kts | 186° |
| 2026-05-07 10:29 | 39.93643 | -4.45804 | 34914 ft | 412 kts | 187° |
| 2026-05-07 10:29 | 39.87917 | -4.46376 | 34914 ft | 413 kts | 186° |
| 2026-05-07 10:30 | 39.79325 | -4.47223 | 34913 ft | 413 kts | 186° |
| 2026-05-07 10:30 | 39.73594 | -4.47788 | 34918 ft | 413 kts | 187° |
| 2026-05-07 10:31 | 39.67861 | -4.48368 | 34908 ft | 413 kts | 187° |
| 2026-05-07 10:31 | 39.62121 | -4.48948 | 34910 ft | 414 kts | 187° |
| 2026-05-07 10:32 | 39.56376 | -4.49513 | 34913 ft | 414 kts | 187° |
| 2026-05-07 10:32 | 39.50625 | -4.50076 | 34915 ft | 415 kts | 187° |
| 2026-05-07 10:33 | 39.44871 | -4.50641 | 34909 ft | 415 kts | 187° |
| 2026-05-07 10:33 | 39.39102 | -4.51206 | 34915 ft | 416 kts | 187° |
| 2026-05-07 10:34 | 39.33329 | -4.51782 | 34913 ft | 416 kts | 187° |
| 2026-05-07 10:34 | 39.27550 | -4.52355 | 34916 ft | 417 kts | 187° |
| 2026-05-07 10:35 | 39.21762 | -4.52919 | 34908 ft | 417 kts | 187° |
| 2026-05-07 10:35 | 39.15967 | -4.53480 | 34911 ft | 418 kts | 187° |
| 2026-05-07 10:36 | 39.10210 | -4.54048 | 34911 ft | 418 kts | 187° |
| 2026-05-07 10:36 | 39.04409 | -4.54616 | 34915 ft | 418 kts | 187° |
| 2026-05-07 10:37 | 38.98608 | -4.55179 | 34896 ft | 419 kts | 187° |
| 2026-05-07 10:37 | 38.92794 | -4.55776 | 34897 ft | 419 kts | 189° |
| 2026-05-07 10:38 | 38.87039 | -4.56854 | 34903 ft | 417 kts | 193° |
| 2026-05-07 10:38 | 38.81320 | -4.58189 | 34897 ft | 419 kts | 194° |
| 2026-05-07 10:39 | 38.75555 | -4.59483 | 34887 ft | 422 kts | 193° |
| 2026-05-07 10:39 | 38.69737 | -4.60703 | 34893 ft | 425 kts | 193° |
| 2026-05-07 10:40 | 38.63888 | -4.61896 | 34895 ft | 426 kts | 193° |
| 2026-05-07 10:40 | 38.58029 | -4.63094 | 34900 ft | 427 kts | 193° |
| 2026-05-07 10:41 | 38.52124 | -4.64314 | 34905 ft | 435 kts | 195° |
| 2026-05-07 10:41 | 38.46121 | -4.65563 | 34904 ft | 438 kts | 194° |
| 2026-05-07 10:42 | 38.40093 | -4.66804 | 34903 ft | 439 kts | 194° |
| 2026-05-07 10:42 | 38.34098 | -4.68027 | 34905 ft | 440 kts | 194° |
| 2026-05-07 10:43 | 38.28049 | -4.69259 | 34908 ft | 440 kts | 194° |
| 2026-05-07 10:43 | 38.21992 | -4.70495 | 34910 ft | 441 kts | 194° |
| 2026-05-07 10:44 | 38.15940 | -4.71743 | 34913 ft | 441 kts | 194° |
| 2026-05-07 10:44 | 38.09883 | -4.72985 | 34917 ft | 441 kts | 194° |
| 2026-05-07 10:45 | 38.03824 | -4.74223 | 34904 ft | 441 kts | 195° |
| 2026-05-07 10:45 | 37.97768 | -4.75458 | 34909 ft | 441 kts | 195° |
| 2026-05-07 10:46 | 37.91707 | -4.76695 | 34928 ft | 441 kts | 195° |
| 2026-05-07 10:46 | 37.85643 | -4.77924 | 34895 ft | 442 kts | 195° |
| 2026-05-07 10:47 | 37.79609 | -4.79141 | 34922 ft | 442 kts | 195° |
| 2026-05-07 10:47 | 37.73488 | -4.80383 | 34680 ft | 443 kts | 196° |
| 2026-05-07 10:48 | 37.70485 | -4.80991 | 34446 ft | 443 kts | 196° |
| 2026-05-07 10:48 | 37.67444 | -4.81603 | 34210 ft | 443 kts | 196° |
| 2026-05-07 10:48 | 37.64398 | -4.82214 | 33970 ft | 443 kts | 196° |
| 2026-05-07 10:48 | 37.61353 | -4.82825 | 33679 ft | 443 kts | 196° |
| 2026-05-07 10:49 | 37.58318 | -4.83435 | 33332 ft | 440 kts | 196° |
| 2026-05-07 10:49 | 37.55303 | -4.84039 | 32740 ft | 436 kts | 196° |
| 2026-05-07 10:49 | 37.52312 | -4.84637 | 32174 ft | 433 kts | 196° |
| 2026-05-07 10:49 | 37.49343 | -4.85230 | 31610 ft | 431 kts | 196° |
| 2026-05-07 10:50 | 37.46392 | -4.85820 | 31042 ft | 429 kts | 196° |
| 2026-05-07 10:50 | 37.43453 | -4.86412 | 30509 ft | 427 kts | 196° |
| 2026-05-07 10:50 | 37.40525 | -4.87007 | 29956 ft | 426 kts | 196° |
| 2026-05-07 10:50 | 37.37604 | -4.87599 | 29340 ft | 423 kts | 196° |
| 2026-05-07 10:51 | 37.34715 | -4.88175 | 28824 ft | 418 kts | 197° |
| 2026-05-07 10:51 | 37.31852 | -4.88744 | 28291 ft | 415 kts | 197° |
| 2026-05-07 10:51 | 37.29010 | -4.89313 | 27772 ft | 412 kts | 197° |
| 2026-05-07 10:51 | 37.26185 | -4.89881 | 27260 ft | 410 kts | 196° |
| 2026-05-07 10:52 | 37.23381 | -4.90442 | 26757 ft | 407 kts | 196° |
| 2026-05-07 10:52 | 37.20598 | -4.90997 | 26271 ft | 404 kts | 196° |
| 2026-05-07 10:52 | 37.17831 | -4.91548 | 25782 ft | 401 kts | 196° |
| 2026-05-07 10:52 | 37.15088 | -4.92092 | 25306 ft | 398 kts | 195° |
| 2026-05-07 10:53 | 37.12358 | -4.92633 | 24807 ft | 396 kts | 196° |
| 2026-05-07 10:53 | 37.09650 | -4.93168 | 24350 ft | 393 kts | 196° |
| 2026-05-07 10:53 | 37.06950 | -4.93703 | 23864 ft | 392 kts | 195° |
| 2026-05-07 10:53 | 37.04213 | -4.93933 | 23338 ft | 399 kts | 184° |
| 2026-05-07 10:54 | 37.01446 | -4.93795 | 22797 ft | 397 kts | 184° |
| 2026-05-07 10:54 | 36.98700 | -4.93648 | 22289 ft | 394 kts | 183° |
| 2026-05-07 10:54 | 36.95973 | -4.93500 | 21781 ft | 391 kts | 183° |
| 2026-05-07 10:54 | 36.93263 | -4.93352 | 21276 ft | 388 kts | 182° |
| 2026-05-07 10:55 | 36.90573 | -4.93207 | 20764 ft | 386 kts | 182° |
| 2026-05-07 10:55 | 36.87899 | -4.93066 | 20300 ft | 382 kts | 183° |
| 2026-05-07 10:55 | 36.85246 | -4.92930 | 19780 ft | 380 kts | 183° |
| 2026-05-07 10:55 | 36.82610 | -4.92796 | 19305 ft | 378 kts | 182° |
| 2026-05-07 10:56 | 36.80012 | -4.92667 | 18981 ft | 371 kts | 182° |
| 2026-05-07 10:56 | 36.77472 | -4.92539 | 18539 ft | 369 kts | 182° |
| 2026-05-07 10:56 | 36.74919 | -4.92410 | 18127 ft | 365 kts | 181° |
| 2026-05-07 10:56 | 36.72391 | -4.92284 | 17656 ft | 362 kts | 181° |
| 2026-05-07 10:57 | 36.69882 | -4.92158 | 17193 ft | 359 kts | 181° |
| 2026-05-07 10:57 | 36.67401 | -4.92034 | 16634 ft | 353 kts | 181° |
| 2026-05-07 10:57 | 36.64963 | -4.91908 | 15884 ft | 347 kts | 180° |
| 2026-05-07 10:57 | 36.62600 | -4.91782 | 15447 ft | 333 kts | 180° |
| 2026-05-07 10:58 | 36.60333 | -4.91660 | 15030 ft | 320 kts | 180° |
| 2026-05-07 10:58 | 36.58152 | -4.91546 | 14623 ft | 307 kts | 180° |
| 2026-05-07 10:58 | 36.56014 | -4.91436 | 14228 ft | 308 kts | 180° |
| 2026-05-07 10:58 | 36.53866 | -4.91328 | 13824 ft | 310 kts | 180° |
| 2026-05-07 10:59 | 36.51710 | -4.91221 | 13381 ft | 311 kts | 180° |
| 2026-05-07 10:59 | 36.49553 | -4.91114 | 12965 ft | 310 kts | 180° |
| 2026-05-07 10:59 | 36.47404 | -4.91006 | 12549 ft | 309 kts | 179° |
| 2026-05-07 10:59 | 36.45258 | -4.90898 | 12124 ft | 308 kts | 179° |
| 2026-05-07 11:00 | 36.43116 | -4.90787 | 11698 ft | 308 kts | 179° |
| 2026-05-07 11:00 | 36.40977 | -4.90675 | 11271 ft | 307 kts | 179° |
| 2026-05-07 11:00 | 36.38843 | -4.90565 | 10835 ft | 307 kts | 180° |
| 2026-05-07 11:00 | 36.36710 | -4.90455 | 10401 ft | 307 kts | 180° |
| 2026-05-07 11:01 | 36.34584 | -4.90347 | 10086 ft | 302 kts | 180° |
| 2026-05-07 11:01 | 36.32521 | -4.90240 | 9960 ft | 291 kts | 180° |
| 2026-05-07 11:01 | 36.30517 | -4.90135 | 9691 ft | 286 kts | 180° |
| 2026-05-07 11:01 | 36.28541 | -4.90033 | 9321 ft | 283 kts | 180° |
| 2026-05-07 11:02 | 36.26583 | -4.89935 | 8959 ft | 280 kts | 180° |
| 2026-05-07 11:02 | 36.24641 | -4.89837 | 8586 ft | 278 kts | 180° |
| 2026-05-07 11:02 | 36.22713 | -4.89740 | 8206 ft | 276 kts | 180° |
| 2026-05-07 11:02 | 36.20803 | -4.89646 | 7829 ft | 274 kts | 179° |
| 2026-05-07 11:03 | 36.18908 | -4.89592 | 7446 ft | 271 kts | 186° |
| 2026-05-07 11:03 | 36.17142 | -4.90256 | 7084 ft | 266 kts | 211° |
| 2026-05-07 11:03 | 36.15815 | -4.91808 | 6722 ft | 264 kts | 236° |
| 2026-05-07 11:03 | 36.15183 | -4.93925 | 6350 ft | 265 kts | 262° |
| 2026-05-07 11:04 | 36.15166 | -4.95433 | 6098 ft | 264 kts | 270° |
| 2026-05-07 11:04 | 36.15229 | -4.97647 | 5713 ft | 251 kts | 270° |
| 2026-05-07 11:04 | 36.15291 | -4.99745 | 5370 ft | 237 kts | 270° |
| 2026-05-07 11:04 | 36.15346 | -5.01737 | 5057 ft | 228 kts | 270° |
| 2026-05-07 11:05 | 36.15414 | -5.04312 | 4634 ft | 225 kts | 270° |
| 2026-05-07 11:05 | 36.15461 | -5.06234 | 4307 ft | 222 kts | 270° |
| 2026-05-07 11:05 | 36.15504 | -5.08131 | 4007 ft | 219 kts | 270° |
| 2026-05-07 11:05 | 36.15534 | -5.09403 | 3798 ft | 218 kts | 270° |
| 2026-05-07 11:06 | 36.15579 | -5.11249 | 3491 ft | 210 kts | 270° |
| 2026-05-07 11:06 | 36.15622 | -5.13012 | 3205 ft | 200 kts | 270° |
| 2026-05-07 11:06 | 36.15633 | -5.14695 | 2935 ft | 193 kts | 268° |
| 2026-05-07 11:06 | 36.15597 | -5.16331 | 2719 ft | 187 kts | 267° |
| 2026-05-07 11:07 | 36.15554 | -5.17912 | 2433 ft | 179 kts | 267° |
| 2026-05-07 11:07 | 36.15515 | -5.19388 | 2193 ft | 165 kts | 267° |
| 2026-05-07 11:07 | 36.15480 | -5.20749 | 1983 ft | 152 kts | 267° |
| 2026-05-07 11:07 | 36.15449 | -5.21987 | 1793 ft | 142 kts | 266° |
| 2026-05-07 11:08 | 36.15418 | -5.23195 | 1632 ft | 135 kts | 267° |
| 2026-05-07 11:08 | 36.15389 | -5.24343 | 1451 ft | 134 kts | 266° |
| 2026-05-07 11:08 | 36.15359 | -5.25495 | 1287 ft | 135 kts | 266° |
| 2026-05-07 11:08 | 36.15331 | -5.26642 | 1117 ft | 133 kts | 267° |
| 2026-05-07 11:09 | 36.15325 | -5.27784 | 960 ft | 133 kts | 270° |
| 2026-05-07 11:09 | 36.15331 | -5.28950 | 802 ft | 137 kts | 265° |
| 2026-05-07 11:09 | 36.15283 | -5.30105 | 623 ft | 134 kts | 267° |
| 2026-05-07 11:09 | 36.15246 | -5.31234 | 474 ft | 130 kts | 265° |
| 2026-05-07 11:10 | 36.15203 | -5.32362 | 350 ft | 132 kts | 266° |
| 2026-05-07 11:10 | 36.15170 | -5.33490 | 162 ft | 129 kts | 262° |
| 2026-05-07 11:10 | 36.15130 | -5.34564 | 19 ft | 116 kts | 266° |
| 2026-05-07 11:10 | 36.15107 | -5.35255 | 20 ft | 37 kts | 267° |
| 2026-05-07 11:11 | 36.15117 | -5.35402 | 20 ft | 10 kts | 274° |
| 2026-05-07 11:11 | 36.15103 | -5.35382 | 19 ft | 11 kts | 80° |
| 2026-05-07 11:11 | 36.15107 | -5.35173 | 19 ft | 40 kts | 89° |
| 2026-05-07 11:11 | 36.15122 | -5.34837 | 19 ft | 32 kts | 84° |
| 2026-05-07 11:12 | 36.15141 | -5.34681 | 18 ft | 9 kts | 31° |
| 2026-05-07 11:12 | 36.15187 | -5.34682 | 18 ft | 10 kts | 358° |
| 2026-05-07 11:12 | 36.15229 | -5.34639 | 18 ft | 8 kts | 69° |
| 2026-05-07 11:12 | 36.15278 | -5.34627 | 18 ft | 7 kts | 357° |
| 2026-05-07 11:13 | 36.15304 | -5.34628 | 18 ft | 0 kts | 357° |